Terminal Aerodrome Forecast
Issued by NWS Corpus Christi, TX

Home | Current Version | Previous Version | Text Only | Print | Product List | Glossary On
Versions: 1 2 3 4 5 6 7 8 9 10 11 12 13 14 15 16 17 18 19 20 21 22 23 24 25
000
FTUS44 KCRP 281137
TAFCRP
TAF
KCRP 281137Z 2812/2912 33014KT P6SM SCT009 BKN015
      TEMPO 2812/2813 5SM -RA BKN007 OVC012
     FM281300 35018G25KT P6SM BKN025 OVC040
     FM290000 35015KT P6SM SCT035
     FM290500 36005KT P6SM SKC=

USA.gov is the U.S. government's official web portal to all federal, state and local government web resources and services.